Time;durP1;ratioP1;P1;durP2;ratioP2;P2;SDS_P1;SDS_P2;PMS_P1;PMS_P2;Temp;Humidity;BMP_temperature;BMP_pressure;BME280_temperature;BME280_humidity;BME280_pressure;Samples;Min_cycle;Max_cycle;Signal;HPM_P1;HPM_P2
2023/03/04 00:00:41;;;;;;;10.88;2.63;;;;;;;;;;4997837;28;20045;-46
2023/03/04 00:03:10;;;;;;;12.18;3.05;;;;;;;;;;4987274;28;20060;-49
2023/03/04 00:05:38;;;;;;;12.38;3.25;;;;;;;;;;4985618;28;20045;-47
2023/03/04 00:08:05;;;;;;;9.87;3.00;;;;;;;;;;4981508;28;20108;-46
2023/03/04 00:10:33;;;;;;;9.95;2.58;;;;;;;;;;4976092;28;20133;-47
2023/03/04 00:13:00;;;;;;;10.70;3.25;;;;;;;;;;4970761;28;20492;-48
2023/03/04 00:15:30;;;;;;;10.60;2.97;;;;;;;;;;4350605;28;10001920;-46
2023/03/04 00:18:05;;;;;;;10.38;3.38;;;;;;;;;;4980908;28;20037;-49
2023/03/04 00:20:32;;;;;;;9.98;2.65;;;;;;;;;;4992832;28;20045;-48
2023/03/04 00:23:00;;;;;;;11.87;2.30;;;;;;;;;;4985067;28;20160;-48
2023/03/04 00:25:28;;;;;;;5.88;1.80;;;;;;;;;;4977064;28;20129;-49
2023/03/04 00:27:57;;;;;;;9.07;2.92;;;;;;;;;;4976557;28;20122;-47
2023/03/04 00:30:24;;;;;;;9.30;2.10;;;;;;;;;;4977099;28;20116;-47
2023/03/04 00:32:52;;;;;;;13.57;2.55;;;;;;;;;;4974172;28;20077;-47
2023/03/04 00:35:21;;;;;;;9.57;2.43;;;;;;;;;;4976794;28;20042;-50
2023/03/04 00:37:49;;;;;;;13.50;2.78;;;;;;;;;;4975972;28;20042;-47
2023/03/04 00:40:17;;;;;;;8.75;2.33;;;;;;;;;;4973080;28;20049;-48
2023/03/04 00:42:44;;;;;;;10.20;2.08;;;;;;;;;;4976797;28;20049;-48
2023/03/04 00:45:12;;;;;;;6.60;1.80;;;;;;;;;;4984890;28;20053;-47
2023/03/04 00:47:40;;;;;;;11.60;1.90;;;;;;;;;;4989768;28;20554;-48
2023/03/04 00:50:08;;;;;;;6.80;1.55;;;;;;;;;;4956840;28;20033;-54
2023/03/04 00:52:37;;;;;;;8.32;2.30;;;;;;;;;;4991818;28;20587;-52
2023/03/04 00:55:05;;;;;;;8.80;1.63;;;;;;;;;;4994577;28;20121;-51
2023/03/04 00:57:33;;;;;;;6.70;1.73;;;;;;;;;;4978987;28;20067;-51
2023/03/04 01:00:00;;;;;;;8.63;1.67;;;;;;;;;;4981757;28;20566;-47
2023/03/04 01:02:28;;;;;;;9.80;1.65;;;;;;;;;;4993241;28;20103;-46
2023/03/04 01:04:56;;;;;;;9.93;1.83;;;;;;;;;;4979716;28;20030;-49
2023/03/04 01:07:24;;;;;;;6.53;1.75;;;;;;;;;;4992376;28;20044;-50
2023/03/04 01:09:52;;;;;;;10.07;1.88;;;;;;;;;;4983369;28;20609;-48
2023/03/04 01:12:20;;;;;;;8.53;1.90;;;;;;;;;;5000628;28;20041;-48
2023/03/04 01:14:48;;;;;;;10.82;1.90;;;;;;;;;;4984468;28;20124;-49
2023/03/04 01:17:15;;;;;;;9.48;1.67;;;;;;;;;;4997361;28;20329;-48
2023/03/04 01:19:43;;;;;;;9.55;1.90;;;;;;;;;;4982665;28;22278;-48
2023/03/04 01:22:14;;;;;;;11.52;1.30;;;;;;;;;;4990604;28;20038;-48
2023/03/04 01:24:42;;;;;;;8.23;1.47;;;;;;;;;;5006433;28;20049;-49
2023/03/04 01:27:11;;;;;;;12.95;1.83;;;;;;;;;;4971340;28;21481;-47
2023/03/04 01:29:39;;;;;;;7.65;1.30;;;;;;;;;;4993539;28;20133;-47
2023/03/04 01:32:07;;;;;;;10.82;1.73;;;;;;;;;;4960477;28;20088;-50
2023/03/04 01:34:35;;;;;;;12.23;1.45;;;;;;;;;;4999770;28;20077;-47
2023/03/04 01:37:02;;;;;;;11.90;1.10;;;;;;;;;;4980730;28;20124;-46
2023/03/04 01:39:30;;;;;;;9.82;1.33;;;;;;;;;;4996828;28;20503;-49
2023/03/04 01:41:58;;;;;;;12.05;1.23;;;;;;;;;;4979816;28;20462;-48
2023/03/04 01:44:27;;;;;;;6.80;0.93;;;;;;;;;;4986660;28;20050;-49
2023/03/04 01:46:55;;;;;;;7.68;1.50;;;;;;;;;;4981504;28;20133;-47
2023/03/04 01:49:23;;;;;;;9.13;1.60;;;;;;;;;;4990645;28;20069;-50
2023/03/04 01:51:53;;;;;;;9.45;1.45;;;;;;;;;;4989579;28;20120;-51
2023/03/04 01:54:22;;;;;;;8.32;1.80;;;;;;;;;;4981962;28;20041;-48
2023/03/04 01:56:55;;;;;;;8.85;1.55;;;;;;;;;;4985375;28;20041;-50
2023/03/04 01:59:34;;;;;;;9.52;1.70;;;;;;;;;;4993600;28;20141;-49
2023/03/04 02:02:01;;;;;;;5.83;1.13;;;;;;;;;;4996400;28;20033;-48
2023/03/04 02:04:31;;;;;;;8.07;1.52;;;;;;;;;;4984834;28;20446;-48
2023/03/04 02:06:59;;;;;;;12.30;1.73;;;;;;;;;;5004941;28;20116;-50
2023/03/04 02:09:26;;;;;;;8.90;1.33;;;;;;;;;;4983971;28;20597;-49
2023/03/04 02:11:55;;;;;;;8.40;1.83;;;;;;;;;;5004069;28;20138;-52
2023/03/04 02:14:23;;;;;;;7.67;1.37;;;;;;;;;;4984647;28;20103;-49
2023/03/04 02:16:53;;;;;;;8.20;1.50;;;;;;;;;;5001599;28;20092;-47
2023/03/04 02:19:27;;;;;;;13.07;1.92;;;;;;;;;;4973576;28;20127;-48
2023/03/04 02:21:55;;;;;;;11.27;1.77;;;;;;;;;;4993396;28;20042;-48
2023/03/04 02:24:26;;;;;;;8.65;1.48;;;;;;;;;;4976163;28;20131;-48
2023/03/04 02:26:55;;;;;;;11.17;1.73;;;;;;;;;;4993257;28;20037;-47
2023/03/04 02:29:23;;;;;;;7.75;1.40;;;;;;;;;;4978475;28;20569;-48
2023/03/04 02:31:58;;;;;;;13.57;2.78;;;;;;;;;;4995393;28;20072;-49
2023/03/04 02:34:28;;;;;;;10.13;1.60;;;;;;;;;;4990578;28;20100;-50
2023/03/04 02:36:57;;;;;;;10.57;2.10;;;;;;;;;;4948309;28;20042;-48
2023/03/04 02:39:27;;;;;;;12.63;1.90;;;;;;;;;;5004380;28;20631;-49
2023/03/04 02:42:03;;;;;;;11.15;1.85;;;;;;;;;;4984824;28;20730;-51
2023/03/04 02:44:33;;;;;;;10.77;2.00;;;;;;;;;;4958604;28;20465;-51
2023/03/04 02:47:01;;;;;;;15.70;1.98;;;;;;;;;;4984868;28;20487;-52
2023/03/04 02:49:30;;;;;;;8.75;2.08;;;;;;;;;;4992783;28;20553;-52
2023/03/04 02:51:59;;;;;;;9.17;1.90;;;;;;;;;;4979008;28;20060;-49
2023/03/04 02:54:32;;;;;;;7.68;1.60;;;;;;;;;;4987689;28;20041;-50
2023/03/04 02:57:01;;;;;;;8.32;1.90;;;;;;;;;;4992690;28;20490;-48
2023/03/04 02:59:30;;;;;;;8.68;1.63;;;;;;;;;;4983435;28;20057;-46
2023/03/04 03:01:58;;;;;;;9.90;1.70;;;;;;;;;;4992132;28;20475;-48
2023/03/04 03:04:26;;;;;;;8.73;1.97;;;;;;;;;;4981746;28;20048;-47
2023/03/04 03:06:54;;;;;;;7.85;1.98;;;;;;;;;;4998969;28;20080;-48
2023/03/04 03:09:22;;;;;;;9.23;1.65;;;;;;;;;;4980813;28;20038;-48
2023/03/04 03:11:50;;;;;;;11.85;2.42;;;;;;;;;;4987823;28;20868;-47
2023/03/04 03:14:18;;;;;;;11.98;2.28;;;;;;;;;;4969463;28;20096;-48
2023/03/04 03:16:47;;;;;;;12.90;1.70;;;;;;;;;;4984757;28;20499;-48
2023/03/04 03:19:14;;;;;;;9.95;1.90;;;;;;;;;;4983061;28;20048;-50
2023/03/04 03:21:42;;;;;;;11.25;2.53;;;;;;;;;;4995107;28;20045;-48
2023/03/04 03:24:09;;;;;;;10.80;2.10;;;;;;;;;;5001865;28;20104;-49
2023/03/04 03:26:38;;;;;;;8.75;2.83;;;;;;;;;;4988987;28;20038;-48
2023/03/04 03:29:09;;;;;;;11.77;2.80;;;;;;;;;;4989116;28;20060;-49
2023/03/04 03:31:37;;;;;;;15.23;4.15;;;;;;;;;;4991006;28;20760;-47
2023/03/04 03:34:06;;;;;;;9.70;3.83;;;;;;;;;;4949660;28;20056;-48
2023/03/04 03:36:33;;;;;;;20.55;4.20;;;;;;;;;;4997270;28;20115;-50
2023/03/04 03:39:01;;;;;;;10.48;4.35;;;;;;;;;;4987291;28;20128;-51
2023/03/04 03:41:29;;;;;;;14.50;4.33;;;;;;;;;;4979289;28;20042;-48
2023/03/04 03:43:56;;;;;;;11.10;3.55;;;;;;;;;;4967508;28;21249;-49
2023/03/04 03:46:24;;;;;;;12.82;4.78;;;;;;;;;;4987361;28;20701;-47
2023/03/04 03:48:52;;;;;;;15.90;5.45;;;;;;;;;;4981072;28;20136;-49
2023/03/04 03:51:21;;;;;;;18.05;5.43;;;;;;;;;;4975018;28;20045;-48
2023/03/04 03:53:48;;;;;;;15.10;4.87;;;;;;;;;;5008046;28;20538;-48
2023/03/04 03:56:16;;;;;;;16.42;4.43;;;;;;;;;;4975738;28;20495;-47
2023/03/04 03:58:44;;;;;;;17.05;4.53;;;;;;;;;;4993149;28;20179;-52
2023/03/04 04:01:11;;;;;;;15.23;4.55;;;;;;;;;;4989990;28;20407;-49
2023/03/04 04:03:39;;;;;;;10.73;4.10;;;;;;;;;;4998286;28;20140;-51
2023/03/04 04:06:07;;;;;;;13.70;4.50;;;;;;;;;;4979487;28;20808;-48
2023/03/04 04:08:36;;;;;;;15.30;4.65;;;;;;;;;;4991082;28;20113;-49
2023/03/04 04:11:04;;;;;;;14.23;5.45;;;;;;;;;;4972819;28;20165;-48
2023/03/04 04:13:31;;;;;;;12.45;5.00;;;;;;;;;;4989420;28;20095;-48
2023/03/04 04:15:59;;;;;;;18.67;5.40;;;;;;;;;;4978012;28;20922;-49
2023/03/04 04:18:27;;;;;;;11.17;4.57;;;;;;;;;;4988002;28;20050;-50
2023/03/04 04:20:55;;;;;;;12.15;4.60;;;;;;;;;;4988591;28;20030;-48
2023/03/04 04:23:23;;;;;;;14.63;4.45;;;;;;;;;;4983588;28;20083;-52
2023/03/04 04:25:54;;;;;;;12.48;4.72;;;;;;;;;;4996455;28;20515;-48
2023/03/04 04:28:22;;;;;;;11.20;4.65;;;;;;;;;;4993877;28;20037;-52
2023/03/04 04:30:49;;;;;;;15.10;5.30;;;;;;;;;;4981998;28;20116;-46
2023/03/04 04:33:17;;;;;;;15.10;4.38;;;;;;;;;;4991884;28;20049;-48
2023/03/04 04:35:49;;;;;;;10.57;3.90;;;;;;;;;;4997670;28;20458;-48
2023/03/04 04:38:17;;;;;;;13.27;3.72;;;;;;;;;;4993100;28;20815;-50
2023/03/04 04:40:45;;;;;;;17.52;4.53;;;;;;;;;;4991054;28;20475;-51
2023/03/04 04:43:14;;;;;;;13.40;4.37;;;;;;;;;;4932330;28;20045;-51
2023/03/04 04:45:42;;;;;;;11.55;4.25;;;;;;;;;;4979547;28;20034;-49
2023/03/04 04:48:10;;;;;;;12.50;4.05;;;;;;;;;;4996473;28;20078;-49
2023/03/04 04:50:37;;;;;;;18.33;3.58;;;;;;;;;;4972636;28;20136;-49
2023/03/04 04:53:05;;;;;;;10.13;4.30;;;;;;;;;;4991323;28;20034;-49
2023/03/04 04:55:33;;;;;;;13.70;4.20;;;;;;;;;;5002688;28;20048;-48
2023/03/04 04:58:01;;;;;;;10.90;3.65;;;;;;;;;;4979173;28;20160;-51
2023/03/04 05:00:30;;;;;;;10.60;3.72;;;;;;;;;;4992179;28;20550;-47
2023/03/04 05:02:58;;;;;;;13.40;4.07;;;;;;;;;;4982564;28;20379;-49
2023/03/04 05:05:25;;;;;;;11.23;3.78;;;;;;;;;;4990037;28;20038;-50
2023/03/04 05:07:53;;;;;;;12.00;3.80;;;;;;;;;;4987474;28;20069;-48
2023/03/04 05:10:21;;;;;;;11.23;4.32;;;;;;;;;;4997517;28;20122;-48
2023/03/04 05:12:48;;;;;;;9.00;3.38;;;;;;;;;;4984075;28;20037;-49
2023/03/04 05:15:16;;;;;;;13.55;3.75;;;;;;;;;;4989626;28;20034;-50
2023/03/04 05:17:46;;;;;;;11.20;3.70;;;;;;;;;;4998416;28;20116;-52
2023/03/04 05:20:14;;;;;;;10.40;3.40;;;;;;;;;;4978436;28;20046;-48
2023/03/04 05:22:41;;;;;;;8.15;2.83;;;;;;;;;;4996905;28;20056;-49
2023/03/04 05:25:10;;;;;;;13.05;3.03;;;;;;;;;;4991748;28;20051;-53
2023/03/04 05:27:37;;;;;;;12.50;2.90;;;;;;;;;;4977561;28;20428;-51
2023/03/04 05:30:05;;;;;;;7.82;2.78;;;;;;;;;;4997535;28;20128;-47
2023/03/04 05:32:33;;;;;;;13.87;2.60;;;;;;;;;;4994737;28;20056;-49
2023/03/04 05:35:03;;;;;;;8.95;3.47;;;;;;;;;;4987109;28;20053;-52
2023/03/04 05:37:30;;;;;;;7.75;2.47;;;;;;;;;;4969566;28;20045;-48
2023/03/04 05:39:58;;;;;;;9.65;2.50;;;;;;;;;;4995914;28;20060;-50
2023/03/04 05:42:26;;;;;;;13.98;2.60;;;;;;;;;;4994688;28;20038;-50
2023/03/04 05:44:54;;;;;;;15.33;2.70;;;;;;;;;;4988722;28;20038;-47
2023/03/04 05:47:23;;;;;;;8.95;1.90;;;;;;;;;;4985220;28;20049;-48
2023/03/04 05:49:51;;;;;;;9.82;2.38;;;;;;;;;;4993984;28;20069;-49
2023/03/04 05:52:20;;;;;;;13.90;2.70;;;;;;;;;;4994360;28;20103;-49
2023/03/04 05:54:49;;;;;;;9.38;1.80;;;;;;;;;;5002450;28;20546;-49
2023/03/04 05:57:17;;;;;;;6.73;1.87;;;;;;;;;;4984198;28;20064;-49
2023/03/04 05:59:44;;;;;;;12.23;2.05;;;;;;;;;;5000754;28;20119;-48
2023/03/04 06:02:12;;;;;;;9.23;2.38;;;;;;;;;;4976526;28;20548;-53
2023/03/04 06:04:40;;;;;;;12.02;2.75;;;;;;;;;;4997200;28;20123;-49
2023/03/04 06:07:07;;;;;;;10.25;3.17;;;;;;;;;;4987867;28;20061;-48
2023/03/04 06:09:36;;;;;;;12.43;2.80;;;;;;;;;;4999450;28;20175;-52
2023/03/04 06:12:04;;;;;;;11.43;3.40;;;;;;;;;;4986975;28;20124;-53
2023/03/04 06:14:32;;;;;;;9.23;2.75;;;;;;;;;;4992483;28;20092;-47
2023/03/04 06:17:00;;;;;;;12.18;3.75;;;;;;;;;;4965909;28;20710;-47
2023/03/04 06:19:28;;;;;;;11.57;3.30;;;;;;;;;;5004076;28;20057;-47
2023/03/04 06:21:55;;;;;;;14.97;3.70;;;;;;;;;;4992098;28;20042;-50
2023/03/04 06:24:23;;;;;;;11.13;3.50;;;;;;;;;;4986991;28;20724;-50
2023/03/04 06:26:52;;;;;;;13.02;3.53;;;;;;;;;;4993221;28;20095;-48
2023/03/04 06:29:20;;;;;;;9.98;3.10;;;;;;;;;;4972665;28;20488;-52
2023/03/04 06:31:48;;;;;;;15.52;3.88;;;;;;;;;;4983765;28;20099;-48
2023/03/04 06:34:15;;;;;;;15.93;3.27;;;;;;;;;;4977227;28;20430;-48
2023/03/04 06:36:43;;;;;;;11.38;3.47;;;;;;;;;;4992041;28;20436;-50
2023/03/04 06:39:11;;;;;;;11.73;3.50;;;;;;;;;;4985224;28;20061;-48
2023/03/04 06:41:38;;;;;;;15.15;3.90;;;;;;;;;;4999015;28;20549;-51
2023/03/04 06:44:08;;;;;;;12.25;3.38;;;;;;;;;;4979885;28;20403;-49
2023/03/04 06:46:35;;;;;;;12.03;3.83;;;;;;;;;;4986976;28;20124;-50
2023/03/04 06:49:03;;;;;;;12.32;4.00;;;;;;;;;;4985764;28;20050;-48
2023/03/04 06:51:31;;;;;;;14.02;4.35;;;;;;;;;;4987985;28;20049;-52
2023/03/04 06:54:00;;;;;;;13.55;3.83;;;;;;;;;;4979226;28;20038;-50
2023/03/04 06:56:28;;;;;;;14.48;4.70;;;;;;;;;;4989317;28;21212;-47
2023/03/04 06:58:56;;;;;;;12.60;4.27;;;;;;;;;;4995094;28;20049;-47
2023/03/04 07:01:26;;;;;;;11.63;3.95;;;;;;;;;;4991965;28;20049;-50
2023/03/04 07:03:54;;;;;;;14.88;4.47;;;;;;;;;;4983866;28;20037;-48
2023/03/04 07:06:22;;;;;;;14.90;4.82;;;;;;;;;;4986868;28;20045;-47
2023/03/04 07:08:50;;;;;;;14.70;4.78;;;;;;;;;;4981774;28;20395;-49
2023/03/04 07:11:18;;;;;;;14.10;4.57;;;;;;;;;;5001514;28;20108;-51
2023/03/04 07:13:46;;;;;;;12.88;4.55;;;;;;;;;;4985370;28;20120;-50
2023/03/04 07:16:14;;;;;;;16.55;5.63;;;;;;;;;;4991365;28;20128;-47
2023/03/04 07:18:43;;;;;;;14.95;4.95;;;;;;;;;;4969834;28;20451;-51
2023/03/04 07:21:11;;;;;;;14.13;5.38;;;;;;;;;;4993292;28;20140;-53
2023/03/04 07:23:39;;;;;;;22.63;4.93;;;;;;;;;;4987958;28;20041;-52
2023/03/04 07:26:07;;;;;;;17.15;5.45;;;;;;;;;;4980921;28;20096;-50
2023/03/04 07:28:35;;;;;;;17.75;5.43;;;;;;;;;;4993771;28;20073;-50
2023/03/04 07:31:12;;;;;;;22.23;4.82;;;;;;;;;;4982134;28;20037;-49
2023/03/04 07:33:45;;;;;;;19.15;5.55;;;;;;;;;;4997404;28;20042;-50
2023/03/04 07:36:13;;;;;;;18.17;5.40;;;;;;;;;;4989312;28;20038;-49
2023/03/04 07:38:43;;;;;;;12.23;5.05;;;;;;;;;;4974228;28;20033;-51
2023/03/04 07:41:10;;;;;;;15.07;5.00;;;;;;;;;;4985371;28;20144;-49
2023/03/04 07:43:38;;;;;;;16.30;4.88;;;;;;;;;;4976164;28;20676;-49
2023/03/04 07:46:05;;;;;;;13.23;4.93;;;;;;;;;;4977968;28;20546;-52
2023/03/04 07:48:33;;;;;;;14.13;4.90;;;;;;;;;;4983928;28;20087;-50
2023/03/04 07:51:08;;;;;;;11.60;4.15;;;;;;;;;;4972499;28;20555;-51
2023/03/04 07:53:36;;;;;;;15.50;4.90;;;;;;;;;;4994387;28;20380;-47
2023/03/04 07:56:05;;;;;;;13.70;4.40;;;;;;;;;;4993596;28;20038;-48
2023/03/04 07:58:39;;;;;;;13.52;4.68;;;;;;;;;;4985498;28;20540;-49
2023/03/04 08:01:10;;;;;;;14.67;3.57;;;;;;;;;;4979990;28;20038;-47
2023/03/04 08:03:39;;;;;;;13.02;4.25;;;;;;;;;;4989669;28;20061;-48
2023/03/04 08:06:10;;;;;;;13.98;4.50;;;;;;;;;;4986317;28;20046;-48
2023/03/04 08:08:38;;;;;;;12.50;3.85;;;;;;;;;;4984945;28;20041;-51
2023/03/04 08:11:06;;;;;;;12.13;4.00;;;;;;;;;;4969575;28;20089;-49
2023/03/04 08:13:33;;;;;;;14.83;4.30;;;;;;;;;;4993301;28;20051;-47
2023/03/04 08:16:01;;;;;;;13.95;3.85;;;;;;;;;;4989044;28;20046;-52
2023/03/04 08:18:30;;;;;;;12.85;3.60;;;;;;;;;;4981069;28;20057;-50
2023/03/04 08:20:57;;;;;;;15.55;3.92;;;;;;;;;;4986526;28;20132;-49
2023/03/04 08:23:26;;;;;;;14.07;4.10;;;;;;;;;;5000881;28;20057;-47
2023/03/04 08:25:55;;;;;;;13.17;4.20;;;;;;;;;;4975329;28;20043;-50
2023/03/04 08:28:22;;;;;;;11.75;3.35;;;;;;;;;;4988953;28;20060;-48
2023/03/04 08:30:52;;;;;;;14.55;3.65;;;;;;;;;;4973004;28;20153;-48
2023/03/04 08:33:20;;;;;;;12.02;3.55;;;;;;;;;;4989424;28;20068;-48
2023/03/04 08:35:48;;;;;;;13.18;3.60;;;;;;;;;;4973169;28;20496;-51
2023/03/04 08:38:15;;;;;;;9.97;3.17;;;;;;;;;;4990373;28;20095;-48
2023/03/04 08:40:45;;;;;;;13.35;3.35;;;;;;;;;;4988303;28;20045;-48
2023/03/04 08:43:12;;;;;;;8.70;2.78;;;;;;;;;;5002935;28;20120;-50
2023/03/04 08:45:40;;;;;;;8.90;2.85;;;;;;;;;;4984685;28;20107;-49
2023/03/04 08:48:08;;;;;;;7.82;2.17;;;;;;;;;;4984716;28;20099;-48
2023/03/04 08:50:35;;;;;;;9.87;2.60;;;;;;;;;;4989759;28;20120;-49
2023/03/04 08:53:03;;;;;;;12.27;2.50;;;;;;;;;;4992888;28;20049;-52
2023/03/04 08:55:33;;;;;;;6.80;1.95;;;;;;;;;;4990576;28;20063;-48
2023/03/04 08:58:02;;;;;;;9.13;2.15;;;;;;;;;;4989944;28;20068;-49
2023/03/04 09:00:29;;;;;;;6.65;1.88;;;;;;;;;;4980230;28;20156;-47
2023/03/04 09:02:57;;;;;;;9.97;2.17;;;;;;;;;;4999704;28;20087;-48
2023/03/04 09:05:25;;;;;;;6.82;1.85;;;;;;;;;;4979393;28;20080;-50
2023/03/04 09:07:53;;;;;;;11.02;2.13;;;;;;;;;;4987182;28;20053;-50
2023/03/04 09:10:21;;;;;;;12.40;2.47;;;;;;;;;;4968554;28;20493;-49
2023/03/04 09:12:48;;;;;;;9.13;2.08;;;;;;;;;;5000425;28;20091;-48
2023/03/04 09:15:18;;;;;;;11.83;2.40;;;;;;;;;;4981901;28;20499;-48
2023/03/04 09:17:45;;;;;;;10.63;2.22;;;;;;;;;;5003579;28;20467;-52
2023/03/04 09:20:13;;;;;;;9.15;2.15;;;;;;;;;;4969639;28;20054;-46
2023/03/04 09:22:41;;;;;;;10.07;2.83;;;;;;;;;;4992320;28;20305;-46
2023/03/04 09:25:13;;;;;;;12.52;2.58;;;;;;;;;;4988745;28;20034;-49
2023/03/04 09:27:40;;;;;;;10.90;1.97;;;;;;;;;;4999815;28;20041;-50
2023/03/04 09:30:09;;;;;;;17.30;3.15;;;;;;;;;;4999330;28;20634;-48
2023/03/04 09:32:38;;;;;;;8.13;2.00;;;;;;;;;;5010707;28;20073;-49
2023/03/04 09:35:06;;;;;;;7.03;2.10;;;;;;;;;;4969925;28;20041;-47
2023/03/04 09:37:34;;;;;;;5.68;1.98;;;;;;;;;;4994667;28;20120;-50
2023/03/04 09:40:02;;;;;;;8.50;2.00;;;;;;;;;;4990826;28;20200;-48
2023/03/04 09:42:33;;;;;;;7.18;1.65;;;;;;;;;;4996664;28;20441;-46
2023/03/04 09:45:01;;;;;;;10.32;2.25;;;;;;;;;;4996862;28;20041;-48
2023/03/04 09:47:30;;;;;;;7.93;2.10;;;;;;;;;;4966550;28;20358;-52
2023/03/04 09:50:00;;;;;;;7.57;1.98;;;;;;;;;;4988318;28;20042;-48
2023/03/04 09:52:34;;;;;;;9.20;1.60;;;;;;;;;;4987364;28;20513;-47
2023/03/04 09:55:04;;;;;;;8.55;2.00;;;;;;;;;;4989353;28;20072;-51
2023/03/04 09:57:41;;;;;;;10.07;2.30;;;;;;;;;;4988998;28;20256;-47
2023/03/04 10:00:12;;;;;;;9.15;2.03;;;;;;;;;;5003003;28;20046;-47
2023/03/04 10:02:44;;;;;;;7.88;1.80;;;;;;;;;;4982602;28;20095;-48
2023/03/04 10:05:17;;;;;;;8.50;2.07;;;;;;;;;;4996502;28;20038;-47
2023/03/04 10:07:48;;;;;;;8.95;1.67;;;;;;;;;;4986259;28;20153;-53
2023/03/04 10:10:19;;;;;;;11.23;2.60;;;;;;;;;;4978998;28;20030;-48
2023/03/04 10:12:48;;;;;;;10.43;2.20;;;;;;;;;;4978136;28;20098;-48
2023/03/04 10:15:22;;;;;;;9.50;2.50;;;;;;;;;;4982085;28;21706;-47
2023/03/04 10:17:54;;;;;;;10.80;2.80;;;;;;;;;;4991229;28;20038;-51
2023/03/04 10:20:26;;;;;;;9.00;2.00;;;;;;;;;;4969456;28;20064;-50
2023/03/04 10:22:56;;;;;;;9.52;2.00;;;;;;;;;;4991270;28;20138;-51
2023/03/04 10:25:25;;;;;;;11.32;2.63;;;;;;;;;;4991769;28;20050;-47
2023/03/04 10:27:55;;;;;;;8.13;2.05;;;;;;;;;;4987358;28;20049;-48
2023/03/04 10:30:30;;;;;;;9.27;2.53;;;;;;;;;;4973548;28;20061;-49
2023/03/04 10:32:58;;;;;;;11.70;3.08;;;;;;;;;;4986759;28;20412;-52
2023/03/04 10:35:34;;;;;;;8.95;3.00;;;;;;;;;;4994656;28;20049;-53
2023/03/04 10:38:03;;;;;;;8.98;2.80;;;;;;;;;;4969547;28;20046;-49
2023/03/04 10:40:36;;;;;;;10.60;2.72;;;;;;;;;;4997124;28;20045;-47
2023/03/04 10:43:06;;;;;;;8.73;3.10;;;;;;;;;;4979519;28;20046;-54
2023/03/04 10:45:41;;;;;;;12.70;3.00;;;;;;;;;;4993995;28;20048;-51
2023/03/04 10:48:17;;;;;;;14.20;2.80;;;;;;;;;;4988890;28;20049;-50
2023/03/04 10:50:48;;;;;;;10.10;3.28;;;;;;;;;;4982406;28;20041;-51
2023/03/04 10:53:25;;;;;;;10.52;3.28;;;;;;;;;;4986911;28;21008;-53
2023/03/04 10:55:52;;;;;;;13.73;3.70;;;;;;;;;;4980479;28;20037;-51
2023/03/04 10:58:21;;;;;;;15.13;3.58;;;;;;;;;;4998842;28;20061;-47
2023/03/04 11:00:58;;;;;;;21.25;3.67;;;;;;;;;;4970311;28;20920;-52
2023/03/04 11:03:30;;;;;;;12.43;3.58;;;;;;;;;;4990979;28;20046;-52
2023/03/04 11:06:06;;;;;;;9.75;3.13;;;;;;;;;;4984849;28;20087;-51
2023/03/04 11:08:34;;;;;;;11.87;3.37;;;;;;;;;;4989753;28;20041;-50
2023/03/04 11:11:02;;;;;;;13.02;4.03;;;;;;;;;;4994867;28;20033;-50
2023/03/04 11:13:31;;;;;;;13.17;4.47;;;;;;;;;;4289774;28;10000728;-52
2023/03/04 11:16:00;;;;;;;16.63;4.32;;;;;;;;;;4987577;28;20547;-50
2023/03/04 11:18:33;;;;;;;16.55;4.80;;;;;;;;;;4978577;28;20786;-48
2023/03/04 11:21:01;;;;;;;12.73;4.50;;;;;;;;;;4987186;28;20037;-47
2023/03/04 11:23:34;;;;;;;11.05;4.05;;;;;;;;;;4968897;28;20042;-52
2023/03/04 11:26:02;;;;;;;16.37;3.90;;;;;;;;;;4984342;28;20065;-47
2023/03/04 11:28:36;;;;;;;11.00;4.50;;;;;;;;;;4974043;28;20538;-49
2023/03/04 11:31:07;;;;;;;13.88;4.65;;;;;;;;;;4984921;28;20073;-50
2023/03/04 11:33:42;;;;;;;15.73;4.68;;;;;;;;;;4975837;28;20144;-49
2023/03/04 11:36:18;;;;;;;10.73;4.10;;;;;;;;;;4977889;28;20084;-51
2023/03/04 11:38:49;;;;;;;10.70;3.83;;;;;;;;;;5000829;28;20057;-49
2023/03/04 11:41:19;;;;;;;10.60;4.07;;;;;;;;;;4970124;28;20066;-52
2023/03/04 11:43:47;;;;;;;11.70;4.32;;;;;;;;;;4981373;28;20125;-48
2023/03/04 11:46:25;;;;;;;15.27;4.18;;;;;;;;;;4981199;28;20795;-47
2023/03/04 11:49:07;;;;;;;10.38;3.90;;;;;;;;;;4994556;28;20499;-49
2023/03/04 11:51:37;;;;;;;14.27;4.17;;;;;;;;;;4975196;28;20594;-58
2023/03/04 11:54:13;;;;;;;15.82;4.07;;;;;;;;;;4967011;28;20484;-60
2023/03/04 11:56:43;;;;;;;15.45;4.90;;;;;;;;;;4987723;28;20131;-60
2023/03/04 11:59:20;;;;;;;14.60;4.72;;;;;;;;;;4979839;28;20262;-58
2023/03/04 12:01:54;;;;;;;10.23;4.20;;;;;;;;;;4994658;28;20559;-60
2023/03/04 12:04:33;;;;;;;12.83;5.20;;;;;;;;;;4962605;28;20042;-48
2023/03/04 12:07:09;;;;;;;12.18;5.05;;;;;;;;;;4979889;28;20077;-57
2023/03/04 12:09:42;;;;;;;16.25;5.13;;;;;;;;;;4987225;28;20084;-45
2023/03/04 12:12:25;;;;;;;13.55;4.85;;;;;;;;;;4974019;28;20140;-53
2023/03/04 12:14:58;;;;;;;17.15;5.20;;;;;;;;;;4968514;28;20419;-51
2023/03/04 12:17:37;;;;;;;12.00;4.43;;;;;;;;;;4976522;28;20065;-53
2023/03/04 12:20:16;;;;;;;11.55;4.30;;;;;;;;;;4981130;28;20053;-51
2023/03/04 12:22:44;;;;;;;11.60;4.50;;;;;;;;;;4986557;28;20045;-62
2023/03/04 12:25:19;;;;;;;16.77;4.78;;;;;;;;;;4965894;28;20412;-62
2023/03/04 12:27:51;;;;;;;13.02;4.70;;;;;;;;;;4997062;28;20076;-62
2023/03/04 12:30:28;;;;;;;14.00;4.70;;;;;;;;;;4970190;28;20111;-63
2023/03/04 12:32:58;;;;;;;13.45;4.18;;;;;;;;;;4982281;28;20130;-64
2023/03/04 12:35:31;;;;;;;14.43;4.78;;;;;;;;;;4973571;28;20046;-62
2023/03/04 12:38:16;;;;;;;12.68;4.07;;;;;;;;;;4976810;28;20048;-64
2023/03/04 12:40:49;;;;;;;12.63;4.20;;;;;;;;;;4641496;28;10000140;-63
2023/03/04 12:43:25;;;;;;;12.38;4.40;;;;;;;;;;4982700;28;20095;-64
2023/03/04 12:45:58;;;;;;;15.30;4.10;;;;;;;;;;4973854;28;20069;-63
2023/03/04 12:48:30;;;;;;;12.82;4.38;;;;;;;;;;4980996;28;20069;-63
2023/03/04 12:51:02;;;;;;;17.58;4.20;;;;;;;;;;4982743;28;20136;-63
2023/03/04 12:53:33;;;;;;;11.05;4.60;;;;;;;;;;4992141;28;20045;-64
2023/03/04 12:56:03;;;;;;;16.13;4.82;;;;;;;;;;4983076;28;20125;-63
2023/03/04 12:58:31;;;;;;;14.33;4.53;;;;;;;;;;4967104;28;20940;-63
2023/03/04 13:01:03;;;;;;;14.63;4.55;;;;;;;;;;4983282;28;20124;-63
2023/03/04 13:03:37;;;;;;;13.70;4.55;;;;;;;;;;4995573;28;20053;-64
2023/03/04 13:06:13;;;;;;;11.80;4.40;;;;;;;;;;4993690;28;20048;-63
2023/03/04 13:08:49;;;;;;;14.10;4.70;;;;;;;;;;4992856;28;20843;-63
2023/03/04 13:11:47;;;;;;;13.17;3.97;;;;;;;;;;4998953;28;20034;-63
2023/03/04 13:14:29;;;;;;;13.23;4.47;;;;;;;;;;4954643;28;20582;-63
2023/03/04 13:17:00;;;;;;;11.65;3.67;;;;;;;;;;4978107;28;20060;-63
2023/03/04 13:19:45;;;;;;;10.50;3.92;;;;;;;;;;4994303;28;20053;-64
2023/03/04 13:22:30;;;;;;;12.63;4.30;;;;;;;;;;4975380;28;20644;-64
2023/03/04 13:25:02;;;;;;;13.83;4.20;;;;;;;;;;4996526;28;20042;-64
2023/03/04 13:27:47;;;;;;;13.65;3.47;;;;;;;;;;5006574;28;20486;-63
2023/03/04 13:30:33;;;;;;;11.82;3.92;;;;;;;;;;4973782;28;20509;-63
2023/03/04 13:33:26;;;;;;;19.02;4.20;;;;;;;;;;4985964;28;20040;-64
2023/03/04 13:36:00;;;;;;;14.25;4.88;;;;;;;;;;4992815;28;20124;-64
2023/03/04 13:38:33;;;;;;;13.00;4.57;;;;;;;;;;4979749;28;20488;-63
2023/03/04 13:41:12;;;;;;;11.13;4.45;;;;;;;;;;4995568;28;20077;-63
2023/03/04 13:43:41;;;;;;;14.57;4.22;;;;;;;;;;4987243;28;20177;-63
2023/03/04 13:46:32;;;;;;;15.77;4.75;;;;;;;;;;4989678;28;20041;-63
2023/03/04 13:49:04;;;;;;;13.43;4.72;;;;;;;;;;4970697;28;20061;-64
2023/03/04 13:51:32;;;;;;;12.80;4.80;;;;;;;;;;4988147;28;20360;-63
2023/03/04 13:54:08;;;;;;;18.27;5.75;;;;;;;;;;4987376;28;20120;-64
2023/03/04 13:56:36;;;;;;;12.40;4.68;;;;;;;;;;4988932;28;20180;-64
2023/03/04 13:59:19;;;;;;;14.63;5.75;;;;;;;;;;4981531;28;20526;-62
2023/03/04 14:02:04;;;;;;;13.85;4.85;;;;;;;;;;4983961;28;20423;-64
2023/03/04 14:04:36;;;;;;;14.93;4.23;;;;;;;;;;4980961;28;20077;-62
2023/03/04 14:07:16;;;;;;;15.57;5.20;;;;;;;;;;4991148;28;20407;-64
2023/03/04 14:09:53;;;;;;;14.18;5.47;;;;;;;;;;5014217;28;20204;-64
2023/03/04 14:12:21;;;;;;;15.70;5.63;;;;;;;;;;4985124;28;20073;-63
2023/03/04 14:14:52;;;;;;;14.00;5.13;;;;;;;;;;4977647;28;20295;-65
2023/03/04 14:17:22;;;;;;;11.53;4.57;;;;;;;;;;4989194;28;20062;-63
2023/03/04 14:19:51;;;;;;;17.00;5.55;;;;;;;;;;4992963;28;20488;-64
2023/03/04 14:22:23;;;;;;;14.35;5.40;;;;;;;;;;4983376;28;20483;-64
2023/03/04 14:25:19;;;;;;;13.13;5.38;;;;;;;;;;5003861;28;20049;-63
2023/03/04 14:27:47;;;;;;;14.30;5.20;;;;;;;;;;4989164;28;20073;-64
2023/03/04 14:30:19;;;;;;;15.17;5.17;;;;;;;;;;4983385;28;20581;-63
2023/03/04 14:33:17;;;;;;;15.63;4.97;;;;;;;;;;4990259;28;20123;-64
2023/03/04 14:35:47;;;;;;;17.88;4.78;;;;;;;;;;4984001;28;20121;-63
2023/03/04 14:38:19;;;;;;;15.02;4.93;;;;;;;;;;4966484;28;20411;-63
2023/03/04 14:40:48;;;;;;;18.10;4.63;;;;;;;;;;4293703;28;10000594;-63
2023/03/04 14:43:18;;;;;;;11.98;4.68;;;;;;;;;;4979792;28;20107;-64
2023/03/04 14:45:48;;;;;;;15.85;4.88;;;;;;;;;;4993494;28;20041;-63
2023/03/04 14:48:19;;;;;;;15.63;4.90;;;;;;;;;;4983819;28;20653;-63
2023/03/04 14:50:52;;;;;;;13.45;5.05;;;;;;;;;;4989518;28;20041;-63